Main page
METAR-TAF:

METAR-TAF

Airports :

Minna Airport

Minna, Nigeria

latitude: 9-37N, longitude: 6-32E, elevation: 260 m

Current weather observation

The report was made 4 hours and 53 minutes ago, at 20:00 UTC
Wind 3 kt from the South/Southwest
Temperature 27°C
Humidity 84%
Pressure 1014 hPa
Visibility 10 km or more
Few clouds at a height of 1200 ft

METAR: DNMN 022000Z 20003KT 9999 FEW012 27/24 Q1014

Time: 01:53 (00:53 UTC)


TAF: missing

Weather observations and forecasts of more than 4000 airports (METAR and TAF reports).

The available stations are represented by yellow and red dots on the map.

Hover mouse over dot to see the name of the station.

Then click to see weather observations and forecasts.

To change the map : click on the green buttons with a black cross to zoom in, on the green button with a dash to zoom out, or on the green arrows for adjacent maps.


METAR-TAF: